Time;durP1;ratioP1;P1;durP2;ratioP2;P2;SDS_P1;SDS_P2;PMS_P1;PMS_P2;Temp;Humidity;BMP_temperature;BMP_pressure;BME280_temperature;BME280_humidity;BME280_pressure;Samples;Min_cycle;Max_cycle;Signal;HPM_P1;HPM_P2
2022/04/07 00:00:35;;;;;;;10.25;4.07;;;;;;;;;;5012124;28;93854;-77
2022/04/07 00:03:02;;;;;;;12.35;3.42;;;;;;;;;;5013901;28;94140;-77
2022/04/07 00:05:28;;;;;;;6.57;3.10;;;;;;;;;;5009857;28;93492;-78
2022/04/07 00:07:54;;;;;;;5.25;2.85;;;;;;;;;;5002877;28;94270;-77
2022/04/07 00:10:21;;;;;;;9.43;3.15;;;;;;;;;;4999692;28;93064;-77
2022/04/07 00:12:47;;;;;;;13.90;3.95;;;;;;;;;;5016865;28;91814;-78
2022/04/07 00:15:14;;;;;;;13.05;3.55;;;;;;;;;;5012197;28;94022;-77
2022/04/07 00:17:40;;;;;;;11.65;2.92;;;;;;;;;;5011921;28;92436;-78
2022/04/07 00:20:07;;;;;;;9.45;3.03;;;;;;;;;;5010100;28;95234;-78
2022/04/07 00:22:34;;;;;;;8.80;2.83;;;;;;;;;;5013103;28;94174;-78
2022/04/07 00:25:01;;;;;;;7.45;3.00;;;;;;;;;;5011881;28;92451;-79
2022/04/07 00:27:30;;;;;;;6.25;2.95;;;;;;;;;;5011443;28;93949;-79
2022/04/07 00:29:57;;;;;;;10.63;3.40;;;;;;;;;;5010379;28;95823;-79
2022/04/07 00:32:24;;;;;;;11.68;3.22;;;;;;;;;;5012567;28;92564;-80
2022/04/07 00:34:54;;;;;;;13.00;2.88;;;;;;;;;;5001958;27;93103;-79
2022/04/07 00:37:24;;;;;;;10.93;3.50;;;;;;;;;;4981208;28;91864;-79
2022/04/07 00:39:51;;;;;;;8.23;3.08;;;;;;;;;;5011952;28;93388;-79
2022/04/07 00:42:17;;;;;;;9.93;3.15;;;;;;;;;;5011615;28;94727;-79
2022/04/07 00:44:44;;;;;;;12.80;3.35;;;;;;;;;;5011532;28;94846;-79
2022/04/07 00:47:11;;;;;;;17.63;3.28;;;;;;;;;;5011117;28;96426;-79
2022/04/07 00:49:37;;;;;;;14.13;3.00;;;;;;;;;;5012938;28;94077;-77
2022/04/07 00:52:06;;;;;;;16.17;4.25;;;;;;;;;;5011990;28;92597;-77
2022/04/07 00:54:33;;;;;;;10.57;2.95;;;;;;;;;;4972842;28;93267;-77
2022/04/07 00:57:00;;;;;;;22.05;3.70;;;;;;;;;;4976155;28;93443;-77
2022/04/07 00:59:27;;;;;;;14.93;2.63;;;;;;;;;;5010955;28;94081;-77
2022/04/07 01:01:53;;;;;;;15.30;4.35;;;;;;;;;;5012577;28;93533;-77
2022/04/07 01:04:21;;;;;;;13.38;3.17;;;;;;;;;;5011057;28;92436;-78
2022/04/07 01:06:48;;;;;;;16.70;2.85;;;;;;;;;;5013144;28;93950;-78
2022/04/07 01:09:15;;;;;;;7.30;2.95;;;;;;;;;;5007024;28;96656;-78
2022/04/07 01:11:41;;;;;;;13.73;2.42;;;;;;;;;;5012452;28;93367;-78
2022/04/07 01:14:08;;;;;;;11.75;2.70;;;;;;;;;;5011711;28;94661;-77
2022/04/07 01:16:36;;;;;;;10.00;2.47;;;;;;;;;;5011689;28;94223;-77
2022/04/07 01:19:02;;;;;;;10.43;3.10;;;;;;;;;;5014337;28;92682;-77
2022/04/07 01:21:32;;;;;;;11.25;3.22;;;;;;;;;;5010020;28;94273;-78
2022/04/07 01:24:11;;;;;;;10.13;2.88;;;;;;;;;;5010781;28;93790;-77
2022/04/07 01:26:41;;;;;;;12.30;2.70;;;;;;;;;;5011542;28;94064;-78
2022/04/07 01:29:10;;;;;;;9.63;2.10;;;;;;;;;;5011825;28;94527;-78
2022/04/07 01:31:39;;;;;;;13.60;3.13;;;;;;;;;;5010917;28;92436;-77
2022/04/07 01:34:15;;;;;;;14.80;3.40;;;;;;;;;;5004263;28;94825;-77
2022/04/07 01:36:44;;;;;;;11.43;3.10;;;;;;;;;;5007605;28;94435;-78
2022/04/07 01:39:13;;;;;;;15.32;3.28;;;;;;;;;;5012416;28;92504;-78
2022/04/07 01:41:40;;;;;;;15.30;3.08;;;;;;;;;;5010547;28;93839;-78
2022/04/07 01:44:07;;;;;;;12.82;3.72;;;;;;;;;;5010652;28;92998;-78
2022/04/07 01:46:34;;;;;;;22.65;3.38;;;;;;;;;;5010732;28;93087;-78
2022/04/07 01:49:01;;;;;;;20.30;3.65;;;;;;;;;;5010698;28;94267;-77
2022/04/07 01:51:28;;;;;;;10.00;3.20;;;;;;;;;;5012177;28;91748;-78
2022/04/07 01:53:56;;;;;;;12.55;2.88;;;;;;;;;;5009959;28;93572;-77
2022/04/07 01:56:22;;;;;;;9.98;4.18;;;;;;;;;;5012017;28;94694;-77
2022/04/07 01:58:50;;;;;;;11.52;3.30;;;;;;;;;;5008488;28;94866;-77
2022/04/07 02:01:17;;;;;;;19.98;4.28;;;;;;;;;;5015017;28;96537;-78
2022/04/07 02:03:45;;;;;;;13.57;3.92;;;;;;;;;;5008424;28;93012;-77
2022/04/07 02:06:16;;;;;;;13.57;3.97;;;;;;;;;;5012242;28;93980;-77
2022/04/07 02:08:42;;;;;;;23.88;5.47;;;;;;;;;;5000498;28;93458;-76
2022/04/07 02:11:12;;;;;;;18.08;4.40;;;;;;;;;;4991407;28;92536;-76
2022/04/07 02:13:39;;;;;;;20.70;4.28;;;;;;;;;;5000644;28;94023;-77
2022/04/07 02:16:07;;;;;;;8.80;3.20;;;;;;;;;;5011346;28;93728;-77
2022/04/07 02:18:34;;;;;;;15.13;4.28;;;;;;;;;;5010788;28;92896;-77
2022/04/07 02:21:00;;;;;;;21.27;4.10;;;;;;;;;;5014447;28;94290;-78
2022/04/07 02:23:27;;;;;;;25.27;4.88;;;;;;;;;;5012248;28;98073;-78
2022/04/07 02:25:53;;;;;;;20.55;4.63;;;;;;;;;;5014710;28;96265;-78
2022/04/07 02:28:20;;;;;;;20.65;4.78;;;;;;;;;;5013937;28;94149;-78
2022/04/07 02:30:47;;;;;;;17.73;5.57;;;;;;;;;;5013433;28;92657;-78
2022/04/07 02:33:14;;;;;;;20.60;4.55;;;;;;;;;;5007798;28;93882;-77
2022/04/07 02:35:40;;;;;;;16.92;3.90;;;;;;;;;;5008615;28;94035;-78
2022/04/07 02:38:07;;;;;;;12.57;3.67;;;;;;;;;;5008695;28;92483;-78
2022/04/07 02:40:33;;;;;;;31.17;5.88;;;;;;;;;;5014722;28;94015;-78
2022/04/07 02:42:58;;;;;;;19.15;5.65;;;;;;;;;;5004683;28;104420;-78
2022/04/07 02:45:25;;;;;;;15.18;3.92;;;;;;;;;;4997742;28;92506;-78
2022/04/07 02:47:51;;;;;;;21.20;4.45;;;;;;;;;;5002393;28;96566;-78
2022/04/07 02:50:17;;;;;;;22.67;3.55;;;;;;;;;;5015187;28;92806;-78
2022/04/07 02:52:44;;;;;;;17.50;3.85;;;;;;;;;;5012777;28;96032;-77
2022/04/07 02:55:10;;;;;;;21.45;3.83;;;;;;;;;;5014042;28;94503;-77
2022/04/07 02:57:36;;;;;;;15.80;3.65;;;;;;;;;;5005640;28;93090;-78
2022/04/07 03:00:04;;;;;;;22.08;4.38;;;;;;;;;;4994170;28;93966;-78
2022/04/07 03:02:31;;;;;;;14.43;3.38;;;;;;;;;;5000909;28;93859;-78
2022/04/07 03:04:57;;;;;;;10.88;2.97;;;;;;;;;;5015053;28;91871;-77
2022/04/07 03:07:24;;;;;;;22.83;5.00;;;;;;;;;;5015981;28;93013;-78
2022/04/07 03:09:50;;;;;;;25.35;4.63;;;;;;;;;;5014284;28;92495;-77
2022/04/07 03:12:17;;;;;;;20.55;5.55;;;;;;;;;;5002798;28;96762;-78
2022/04/07 03:14:43;;;;;;;19.08;3.00;;;;;;;;;;5000283;28;94544;-78
2022/04/07 03:17:10;;;;;;;20.70;4.22;;;;;;;;;;5012045;28;92968;-78
2022/04/07 03:19:37;;;;;;;21.17;4.35;;;;;;;;;;5014155;28;94231;-78
2022/04/07 03:22:03;;;;;;;17.60;3.90;;;;;;;;;;5010787;28;94036;-78
2022/04/07 03:24:29;;;;;;;26.33;4.95;;;;;;;;;;5014379;28;93039;-78
2022/04/07 03:27:04;;;;;;;26.60;5.43;;;;;;;;;;5012683;28;94258;-78
2022/04/07 03:29:31;;;;;;;29.13;5.43;;;;;;;;;;5016809;28;93390;-78
2022/04/07 03:31:58;;;;;;;21.90;4.90;;;;;;;;;;5008861;28;94550;-78
2022/04/07 03:34:25;;;;;;;23.67;4.88;;;;;;;;;;5012555;28;94963;-77
2022/04/07 03:36:51;;;;;;;20.90;4.63;;;;;;;;;;5009447;28;94838;-78
2022/04/07 03:39:18;;;;;;;21.10;3.75;;;;;;;;;;5012730;28;96395;-78
2022/04/07 03:41:44;;;;;;;32.45;5.65;;;;;;;;;;5013608;28;94280;-78
2022/04/07 03:44:11;;;;;;;20.65;4.43;;;;;;;;;;5011916;28;94186;-78
2022/04/07 03:46:37;;;;;;;26.35;5.03;;;;;;;;;;5014116;28;94423;-78
2022/04/07 03:49:04;;;;;;;18.42;3.92;;;;;;;;;;5012282;28;92864;-78
2022/04/07 03:51:30;;;;;;;16.15;4.20;;;;;;;;;;5016227;28;92870;-78
2022/04/07 03:53:57;;;;;;;21.90;4.63;;;;;;;;;;5012849;28;93391;-78
2022/04/07 03:56:23;;;;;;;14.40;3.65;;;;;;;;;;5012785;28;93592;-78
2022/04/07 03:58:49;;;;;;;24.73;4.57;;;;;;;;;;5012587;28;93929;-78
2022/04/07 04:01:17;;;;;;;26.27;5.32;;;;;;;;;;5012156;28;96643;-78
2022/04/07 04:03:43;;;;;;;18.35;4.32;;;;;;;;;;5011573;28;92429;-78
2022/04/07 04:06:10;;;;;;;21.77;6.05;;;;;;;;;;5012278;28;94039;-78
2022/04/07 04:08:36;;;;;;;25.00;7.22;;;;;;;;;;5013122;28;93902;-78
2022/04/07 04:11:03;;;;;;;20.73;5.40;;;;;;;;;;5014884;28;93056;-78
2022/04/07 04:13:31;;;;;;;16.30;4.47;;;;;;;;;;5011770;28;94072;-78
2022/04/07 04:15:58;;;;;;;25.02;5.25;;;;;;;;;;5013811;28;92777;-77
2022/04/07 04:18:25;;;;;;;22.40;7.70;;;;;;;;;;5012229;28;93711;-78
2022/04/07 04:20:51;;;;;;;23.25;4.45;;;;;;;;;;5013667;28;94535;-78
2022/04/07 04:23:17;;;;;;;20.65;4.15;;;;;;;;;;5009356;28;92593;-78
2022/04/07 04:25:46;;;;;;;21.20;4.30;;;;;;;;;;5011408;28;94864;-78
2022/04/07 04:28:13;;;;;;;22.13;5.38;;;;;;;;;;5011849;28;94140;-78
2022/04/07 04:30:39;;;;;;;25.80;5.20;;;;;;;;;;4996011;28;92507;-78
2022/04/07 04:33:06;;;;;;;19.83;5.10;;;;;;;;;;5009862;28;93828;-78
2022/04/07 04:35:32;;;;;;;20.40;4.45;;;;;;;;;;5006397;28;93246;-78
2022/04/07 04:37:58;;;;;;;16.13;4.15;;;;;;;;;;4993426;28;93378;-78
2022/04/07 04:40:25;;;;;;;15.00;3.70;;;;;;;;;;5002609;28;94835;-78
2022/04/07 04:42:51;;;;;;;20.75;4.20;;;;;;;;;;5010521;28;92257;-78
2022/04/07 04:45:17;;;;;;;14.70;3.67;;;;;;;;;;5002124;28;93315;-78
2022/04/07 04:47:44;;;;;;;22.80;4.38;;;;;;;;;;4992937;27;93216;-77
2022/04/07 04:50:13;;;;;;;11.75;3.47;;;;;;;;;;4995495;28;96106;-78
2022/04/07 04:52:40;;;;;;;18.85;4.22;;;;;;;;;;5002288;28;95441;-78
2022/04/07 04:55:06;;;;;;;20.30;4.03;;;;;;;;;;5014614;28;94352;-78
2022/04/07 04:57:33;;;;;;;12.70;3.20;;;;;;;;;;5012609;28;93905;-78
2022/04/07 04:59:59;;;;;;;9.77;2.42;;;;;;;;;;5011115;28;93093;-78
2022/04/07 05:02:25;;;;;;;11.13;3.50;;;;;;;;;;5011222;28;92446;-78
2022/04/07 05:04:52;;;;;;;14.60;3.33;;;;;;;;;;5006708;28;93934;-78
2022/04/07 05:07:18;;;;;;;16.25;3.30;;;;;;;;;;4992962;28;92735;-78
2022/04/07 05:09:45;;;;;;;18.17;3.85;;;;;;;;;;4994016;28;94812;-78
2022/04/07 05:12:11;;;;;;;12.00;3.45;;;;;;;;;;5011253;28;94168;-77
2022/04/07 05:14:37;;;;;;;9.77;2.42;;;;;;;;;;5008643;28;97193;-77
2022/04/07 05:17:04;;;;;;;10.55;3.55;;;;;;;;;;5015734;28;92513;-77
2022/04/07 05:19:30;;;;;;;14.15;4.03;;;;;;;;;;5012609;28;93142;-77
2022/04/07 05:21:57;;;;;;;9.48;3.70;;;;;;;;;;5009124;28;92638;-77
2022/04/07 05:24:23;;;;;;;9.35;3.03;;;;;;;;;;5012470;28;94267;-77
2022/04/07 05:26:49;;;;;;;11.75;3.38;;;;;;;;;;5011287;28;93480;-77
2022/04/07 05:29:16;;;;;;;13.05;3.88;;;;;;;;;;4997578;28;92422;-78
2022/04/07 05:31:42;;;;;;;10.55;3.97;;;;;;;;;;5009235;28;93941;-77
2022/04/07 05:34:08;;;;;;;11.60;4.50;;;;;;;;;;5010998;28;94586;-78
2022/04/07 05:36:35;;;;;;;17.05;4.72;;;;;;;;;;4997940;28;92503;-78
2022/04/07 05:39:01;;;;;;;9.90;2.97;;;;;;;;;;5008663;28;94860;-78
2022/04/07 05:41:27;;;;;;;12.05;4.43;;;;;;;;;;5012256;28;92458;-78
2022/04/07 05:43:54;;;;;;;10.93;3.78;;;;;;;;;;5010135;28;93284;-78
2022/04/07 05:46:20;;;;;;;9.65;3.70;;;;;;;;;;5012156;28;94307;-78
2022/04/07 05:48:47;;;;;;;9.70;4.15;;;;;;;;;;5010785;28;92654;-78
2022/04/07 05:51:13;;;;;;;10.25;5.18;;;;;;;;;;5012505;28;93859;-78
2022/04/07 05:53:40;;;;;;;7.60;3.45;;;;;;;;;;5010471;28;94611;-78
2022/04/07 05:56:06;;;;;;;4.35;3.58;;;;;;;;;;5015256;28;92019;-78
2022/04/07 05:58:32;;;;;;;12.10;4.43;;;;;;;;;;5014271;28;92828;-78
2022/04/07 06:00:59;;;;;;;8.95;3.90;;;;;;;;;;5018799;28;94254;-77
2022/04/07 06:03:25;;;;;;;7.28;3.33;;;;;;;;;;5011694;28;95160;-78
2022/04/07 06:05:54;;;;;;;3.92;1.20;;;;;;;;;;5015590;28;94255;-78
2022/04/07 06:08:21;;;;;;;2.88;1.30;;;;;;;;;;5014115;28;92513;-77
2022/04/07 06:10:48;;;;;;;4.13;1.50;;;;;;;;;;5015243;28;93981;-77
2022/04/07 06:13:17;;;;;;;5.53;1.15;;;;;;;;;;5013692;28;93208;-78
2022/04/07 06:15:43;;;;;;;9.43;1.80;;;;;;;;;;5015426;28;92960;-78
2022/04/07 06:18:09;;;;;;;5.05;1.27;;;;;;;;;;5003609;28;93421;-78
2022/04/07 06:20:36;;;;;;;3.65;1.23;;;;;;;;;;4999072;28;92450;-77
2022/04/07 06:23:02;;;;;;;13.45;1.38;;;;;;;;;;5009108;28;93642;-79
2022/04/07 06:25:29;;;;;;;4.57;1.55;;;;;;;;;;5012855;28;93755;-78
2022/04/07 06:27:56;;;;;;;4.68;1.52;;;;;;;;;;4999242;28;95253;-77
2022/04/07 06:30:22;;;;;;;3.58;1.15;;;;;;;;;;4994440;28;96773;-78
2022/04/07 06:32:49;;;;;;;6.53;1.90;;;;;;;;;;5003082;28;94604;-77
2022/04/07 06:35:16;;;;;;;6.03;1.33;;;;;;;;;;5012671;28;92499;-78
2022/04/07 06:37:46;;;;;;;5.70;1.27;;;;;;;;;;5011543;28;94145;-77
2022/04/07 06:40:12;;;;;;;3.92;1.33;;;;;;;;;;5014865;28;94193;-78
2022/04/07 06:42:38;;;;;;;5.45;1.60;;;;;;;;;;5014052;28;92595;-78
2022/04/07 06:45:05;;;;;;;9.68;1.63;;;;;;;;;;5014673;28;92521;-78
2022/04/07 06:47:36;;;;;;;13.15;1.42;;;;;;;;;;5013456;28;93127;-78
2022/04/07 06:50:02;;;;;;;1.95;0.88;;;;;;;;;;5015345;28;94312;-78
2022/04/07 06:52:29;;;;;;;3.88;1.25;;;;;;;;;;4995907;28;95864;-78
2022/04/07 06:54:55;;;;;;;7.22;1.83;;;;;;;;;;4995154;28;92379;-77
2022/04/07 06:57:21;;;;;;;9.43;1.95;;;;;;;;;;5007221;28;94265;-78
2022/04/07 06:59:48;;;;;;;6.78;1.50;;;;;;;;;;5013406;28;94517;-77
2022/04/07 07:02:14;;;;;;;3.53;1.20;;;;;;;;;;4998908;28;92480;-78
2022/04/07 07:04:41;;;;;;;4.22;1.33;;;;;;;;;;4992907;28;93849;-77
2022/04/07 07:07:07;;;;;;;11.55;2.45;;;;;;;;;;4992830;28;92536;-76
2022/04/07 07:09:33;;;;;;;7.72;1.77;;;;;;;;;;5010983;28;94035;-76
2022/04/07 07:12:00;;;;;;;10.57;2.50;;;;;;;;;;5011076;28;93836;-76
2022/04/07 07:14:26;;;;;;;7.78;1.85;;;;;;;;;;5007025;28;92543;-76
2022/04/07 07:16:52;;;;;;;4.78;1.55;;;;;;;;;;4986015;28;96678;-76
2022/04/07 07:19:20;;;;;;;11.88;2.83;;;;;;;;;;4989595;28;93907;-76
2022/04/07 07:21:46;;;;;;;11.35;1.45;;;;;;;;;;4993255;28;93916;-76
2022/04/07 07:24:13;;;;;;;3.63;1.65;;;;;;;;;;4986699;28;96410;-76
2022/04/07 07:26:39;;;;;;;8.57;1.65;;;;;;;;;;4989566;28;94021;-76
2022/04/07 07:29:06;;;;;;;4.78;1.67;;;;;;;;;;4986681;28;93093;-76
2022/04/07 07:31:33;;;;;;;5.25;1.67;;;;;;;;;;4985198;28;93499;-76
2022/04/07 07:34:00;;;;;;;7.65;2.28;;;;;;;;;;4992661;27;94194;-77
2022/04/07 07:36:26;;;;;;;7.43;1.55;;;;;;;;;;4990599;28;93135;-77
2022/04/07 07:38:53;;;;;;;4.90;1.42;;;;;;;;;;4996193;28;93689;-77
2022/04/07 07:41:19;;;;;;;5.05;2.35;;;;;;;;;;4991618;28;97065;-76
2022/04/07 07:43:45;;;;;;;9.45;1.85;;;;;;;;;;4995441;28;95311;-77
2022/04/07 07:46:12;;;;;;;5.15;1.85;;;;;;;;;;4988956;28;94141;-77
2022/04/07 07:48:38;;;;;;;6.55;1.50;;;;;;;;;;4987748;28;94043;-77
2022/04/07 07:51:05;;;;;;;2.85;1.30;;;;;;;;;;4990394;28;93178;-77
2022/04/07 07:53:31;;;;;;;6.63;1.38;;;;;;;;;;4991970;28;93995;-77
2022/04/07 07:55:58;;;;;;;3.70;1.75;;;;;;;;;;4986621;28;92923;-77
2022/04/07 07:58:25;;;;;;;4.30;1.40;;;;;;;;;;4986771;28;91710;-77
2022/04/07 08:00:51;;;;;;;5.22;1.45;;;;;;;;;;4991416;28;94710;-77
2022/04/07 08:03:18;;;;;;;9.68;1.42;;;;;;;;;;4992587;28;93754;-76
2022/04/07 08:05:44;;;;;;;2.22;1.10;;;;;;;;;;4985250;28;97647;-76
2022/04/07 08:08:11;;;;;;;8.45;1.45;;;;;;;;;;4980864;28;92640;-77
2022/04/07 08:10:38;;;;;;;4.15;1.33;;;;;;;;;;4983966;28;93270;-76
2022/04/07 08:13:04;;;;;;;6.30;1.65;;;;;;;;;;4993433;28;92581;-77
2022/04/07 08:15:31;;;;;;;1.73;1.42;;;;;;;;;;4993458;28;94022;-77
2022/04/07 08:17:58;;;;;;;5.60;1.30;;;;;;;;;;4991840;28;94164;-77
2022/04/07 08:20:24;;;;;;;5.82;1.88;;;;;;;;;;4988175;28;94724;-77
2022/04/07 08:22:50;;;;;;;6.00;1.20;;;;;;;;;;4989047;28;93911;-77
2022/04/07 08:25:17;;;;;;;7.20;1.50;;;;;;;;;;4983871;28;93838;-76
2022/04/07 08:27:45;;;;;;;3.42;1.30;;;;;;;;;;4985421;28;94536;-77
2022/04/07 08:30:11;;;;;;;1.77;1.15;;;;;;;;;;4988555;28;96686;-76
2022/04/07 08:32:38;;;;;;;3.03;1.15;;;;;;;;;;4986460;28;94429;-76
2022/04/07 08:35:05;;;;;;;3.13;1.70;;;;;;;;;;4985005;28;93886;-77
2022/04/07 08:37:32;;;;;;;5.55;1.50;;;;;;;;;;4987767;28;95103;-77
2022/04/07 08:40:05;;;;;;;3.78;1.30;;;;;;;;;;4983736;28;94671;-76
2022/04/07 08:42:32;;;;;;;6.68;1.40;;;;;;;;;;4989504;28;94207;-77
2022/04/07 08:44:58;;;;;;;2.00;1.13;;;;;;;;;;4988345;28;93986;-77
2022/04/07 08:47:25;;;;;;;6.88;1.42;;;;;;;;;;4990983;28;93131;-77
2022/04/07 08:49:51;;;;;;;6.32;1.55;;;;;;;;;;4986850;28;95448;-76
2022/04/07 08:52:18;;;;;;;3.92;1.27;;;;;;;;;;4989831;28;94378;-76
2022/04/07 08:54:45;;;;;;;5.32;1.60;;;;;;;;;;4985899;28;96753;-75
2022/04/07 08:57:12;;;;;;;3.00;1.48;;;;;;;;;;4990392;28;94463;-76
2022/04/07 08:59:38;;;;;;;2.63;1.00;;;;;;;;;;4989933;28;95450;-77
2022/04/07 09:02:05;;;;;;;5.68;1.35;;;;;;;;;;4985443;28;93746;-77
2022/04/07 09:04:36;;;;;;;5.03;1.48;;;;;;;;;;4993403;28;93198;-78
2022/04/07 09:07:03;;;;;;;5.43;1.85;;;;;;;;;;4989902;28;95159;-77
2022/04/07 09:09:31;;;;;;;9.95;1.77;;;;;;;;;;4985267;28;94043;-79
2022/04/07 09:11:57;;;;;;;6.82;1.90;;;;;;;;;;4983933;28;94274;-78
2022/04/07 09:14:24;;;;;;;6.28;1.98;;;;;;;;;;4991035;28;93223;-78
2022/04/07 09:16:54;;;;;;;10.82;2.78;;;;;;;;;;4986127;28;94060;-77
2022/04/07 09:19:21;;;;;;;8.98;1.80;;;;;;;;;;4988040;28;95149;-76
2022/04/07 09:22:02;;;;;;;3.65;1.25;;;;;;;;;;4981123;28;96443;-75
2022/04/07 09:24:29;;;;;;;8.98;1.90;;;;;;;;;;4983985;28;93563;-78
2022/04/07 09:26:58;;;;;;;6.82;1.98;;;;;;;;;;4987425;28;93827;-78
2022/04/07 09:29:35;;;;;;;5.68;1.55;;;;;;;;;;4989017;28;93884;-78
2022/04/07 09:32:02;;;;;;;4.10;1.75;;;;;;;;;;4985824;28;94093;-80
2022/04/07 09:34:29;;;;;;;7.35;1.80;;;;;;;;;;4988250;28;92785;-79
2022/04/07 09:37:11;;;;;;;6.00;1.92;;;;;;;;;;4997333;28;96798;-79
2022/04/07 09:39:39;;;;;;;11.23;1.85;;;;;;;;;;4990232;28;93042;-79
2022/04/07 09:42:22;;;;;;;16.25;2.97;;;;;;;;;;4988282;28;94015;-79
2022/04/07 09:44:50;;;;;;;6.75;2.35;;;;;;;;;;4981707;28;96848;-78
2022/04/07 09:47:17;;;;;;;14.45;2.65;;;;;;;;;;4990709;28;93025;-78
2022/04/07 09:49:44;;;;;;;9.55;1.75;;;;;;;;;;4991975;28;94271;-78
2022/04/07 09:52:10;;;;;;;8.68;2.33;;;;;;;;;;4982868;28;94632;-78
2022/04/07 09:54:39;;;;;;;14.77;2.15;;;;;;;;;;4986481;28;92724;-78
2022/04/07 09:57:09;;;;;;;10.07;1.95;;;;;;;;;;4989820;28;93013;-79
2022/04/07 09:59:37;;;;;;;10.77;2.10;;;;;;;;;;4989897;28;94589;-78
2022/04/07 10:02:04;;;;;;;6.95;2.10;;;;;;;;;;4982723;28;93959;-78
2022/04/07 10:04:32;;;;;;;10.43;2.65;;;;;;;;;;4984084;28;93373;-78
2022/04/07 10:06:59;;;;;;;16.52;3.25;;;;;;;;;;4983831;28;92589;-78
2022/04/07 10:09:25;;;;;;;13.63;2.20;;;;;;;;;;4981794;28;95186;-79
2022/04/07 10:11:52;;;;;;;7.82;2.10;;;;;;;;;;4993096;28;94242;-76
2022/04/07 10:14:21;;;;;;;14.10;2.10;;;;;;;;;;4995349;28;93950;-81
2022/04/07 10:16:47;;;;;;;6.10;3.10;;;;;;;;;;4996479;28;94322;-78
2022/04/07 10:19:20;;;;;;;11.48;2.53;;;;;;;;;;4982063;28;94290;-78
2022/04/07 10:21:57;;;;;;;11.10;2.60;;;;;;;;;;4988188;28;92547;-79
2022/04/07 10:24:33;;;;;;;6.85;2.45;;;;;;;;;;4995343;28;94429;-78
2022/04/07 10:27:21;;;;;;;7.32;2.28;;;;;;;;;;4983193;28;92292;-79
2022/04/07 10:30:01;;;;;;;5.13;1.70;;;;;;;;;;4984892;28;93939;-79
2022/04/07 10:32:35;;;;;;;12.85;2.95;;;;;;;;;;4984600;28;94389;-78
2022/04/07 10:35:02;;;;;;;9.63;2.38;;;;;;;;;;4983401;28;96514;-78
2022/04/07 10:37:28;;;;;;;16.95;3.30;;;;;;;;;;4982850;28;97397;-78
2022/04/07 10:39:55;;;;;;;13.07;2.22;;;;;;;;;;4989105;28;94555;-76
2022/04/07 10:42:40;;;;;;;11.52;2.58;;;;;;;;;;4994250;28;93785;-79
2022/04/07 10:45:08;;;;;;;9.50;2.30;;;;;;;;;;4986053;28;95823;-78
2022/04/07 10:47:35;;;;;;;10.65;2.20;;;;;;;;;;4990582;28;93635;-77
2022/04/07 10:50:03;;;;;;;18.60;3.55;;;;;;;;;;4987216;28;94029;-78
2022/04/07 10:52:29;;;;;;;12.35;2.75;;;;;;;;;;4985274;28;92692;-79
2022/04/07 10:55:09;;;;;;;16.00;3.55;;;;;;;;;;4990092;28;94204;-79
2022/04/07 10:57:35;;;;;;;9.88;2.85;;;;;;;;;;4992021;28;93984;-79
2022/04/07 11:00:02;;;;;;;9.10;2.72;;;;;;;;;;4992636;28;95645;-79
2022/04/07 11:02:32;;;;;;;12.68;2.83;;;;;;;;;;4987576;28;93946;-78
2022/04/07 11:04:58;;;;;;;14.15;2.50;;;;;;;;;;4993630;28;95290;-78
2022/04/07 11:07:24;;;;;;;7.20;3.28;;;;;;;;;;4992170;28;92616;-77
2022/04/07 11:09:57;;;;;;;14.65;3.28;;;;;;;;;;4991285;28;94094;-78
2022/04/07 11:12:24;;;;;;;16.13;2.85;;;;;;;;;;4986168;28;95473;-83
2022/04/07 11:14:53;;;;;;;11.70;3.15;;;;;;;;;;4982379;28;93297;-79
2022/04/07 11:17:22;;;;;;;9.50;2.67;;;;;;;;;;4984931;28;93383;-79
2022/04/07 11:20:08;;;;;;;12.60;3.05;;;;;;;;;;4981341;28;94366;-78
2022/04/07 11:22:52;;;;;;;11.82;3.10;;;;;;;;;;4997349;28;92586;-79
2022/04/07 11:25:22;;;;;;;9.93;2.88;;;;;;;;;;4979483;28;94815;-80
2022/04/07 11:28:09;;;;;;;15.48;3.40;;;;;;;;;;4995108;28;94879;-78
2022/04/07 11:30:52;;;;;;;16.85;3.50;;;;;;;;;;4991959;28;93936;-79
2022/04/07 11:33:18;;;;;;;13.60;3.67;;;;;;;;;;4985306;28;94473;-78
2022/04/07 11:36:00;;;;;;;15.93;3.50;;;;;;;;;;5001434;28;93096;-78
2022/04/07 11:38:36;;;;;;;10.17;3.00;;;;;;;;;;4989151;28;98328;-80
2022/04/07 11:41:04;;;;;;;11.20;3.17;;;;;;;;;;4989164;28;95345;-78
2022/04/07 11:43:31;;;;;;;17.92;4.00;;;;;;;;;;4990473;27;92651;-78
2022/04/07 11:45:58;;;;;;;12.02;3.03;;;;;;;;;;4986199;28;94099;-78
2022/04/07 11:48:44;;;;;;;11.57;3.25;;;;;;;;;;4991478;28;94086;-77
2022/04/07 11:51:11;;;;;;;13.93;2.92;;;;;;;;;;4989278;28;96555;-78
2022/04/07 11:53:44;;;;;;;10.60;3.50;;;;;;;;;;4985369;28;95468;-78
2022/04/07 11:56:11;;;;;;;8.63;2.72;;;;;;;;;;4984993;28;94246;-80
2022/04/07 11:58:38;;;;;;;10.35;2.88;;;;;;;;;;4992463;28;93119;-78
2022/04/07 12:01:07;;;;;;;20.10;4.03;;;;;;;;;;4987565;28;93654;-75
2022/04/07 12:03:34;;;;;;;16.98;2.90;;;;;;;;;;4992197;28;92929;-78
2022/04/07 12:06:01;;;;;;;12.73;3.17;;;;;;;;;;4993108;28;94126;-78
2022/04/07 12:08:27;;;;;;;10.07;3.47;;;;;;;;;;4992070;28;93142;-78
2022/04/07 12:10:53;;;;;;;8.40;3.42;;;;;;;;;;4986132;28;92506;-77
2022/04/07 12:13:20;;;;;;;14.20;3.10;;;;;;;;;;5014919;28;93759;-78
2022/04/07 12:15:46;;;;;;;10.95;3.40;;;;;;;;;;5010180;28;95039;-77
2022/04/07 12:18:12;;;;;;;15.02;3.00;;;;;;;;;;5009447;28;95861;-77
2022/04/07 12:20:39;;;;;;;15.20;3.25;;;;;;;;;;4999399;28;93344;-76
2022/04/07 12:23:07;;;;;;;14.23;3.05;;;;;;;;;;5011373;28;93397;-74
2022/04/07 12:25:34;;;;;;;5.60;2.80;;;;;;;;;;4990333;28;93779;-77
2022/04/07 12:28:11;;;;;;;14.05;3.60;;;;;;;;;;4998176;28;93206;-77
2022/04/07 12:30:47;;;;;;;10.40;3.00;;;;;;;;;;4992650;28;94892;-76
2022/04/07 12:33:32;;;;;;;12.90;2.80;;;;;;;;;;5005507;28;93928;-76
2022/04/07 12:35:58;;;;;;;8.40;2.38;;;;;;;;;;4993336;28;95014;-77
2022/04/07 12:38:25;;;;;;;15.68;2.97;;;;;;;;;;4987900;28;94329;-77
2022/04/07 12:40:51;;;;;;;14.07;3.42;;;;;;;;;;4987239;28;97132;-76
2022/04/07 12:43:18;;;;;;;10.45;3.58;;;;;;;;;;4990029;28;93408;-76
2022/04/07 12:45:58;;;;;;;11.27;2.78;;;;;;;;;;4991926;28;92780;-77
2022/04/07 12:48:24;;;;;;;13.98;3.63;;;;;;;;;;4998956;28;94085;-76
2022/04/07 12:50:54;;;;;;;11.73;2.67;;;;;;;;;;4990246;28;93322;-76
2022/04/07 12:53:31;;;;;;;8.75;3.08;;;;;;;;;;4985050;28;93887;-77
2022/04/07 12:56:02;;;;;;;14.63;3.00;;;;;;;;;;4979136;28;94203;-77
2022/04/07 12:58:29;;;;;;;9.52;2.75;;;;;;;;;;4980446;28;94640;-77
2022/04/07 13:01:00;;;;;;;18.67;3.83;;;;;;;;;;4994383;28;94482;-76
2022/04/07 13:03:30;;;;;;;12.20;2.58;;;;;;;;;;4996823;28;92463;-77
2022/04/07 13:05:56;;;;;;;11.23;2.72;;;;;;;;;;4988493;28;95748;-77
2022/04/07 13:08:22;;;;;;;10.52;3.38;;;;;;;;;;4993117;27;93153;-77
2022/04/07 13:10:49;;;;;;;10.13;2.80;;;;;;;;;;4992818;28;92442;-77
2022/04/07 13:13:15;;;;;;;10.65;2.80;;;;;;;;;;4992280;28;94101;-76
2022/04/07 13:15:42;;;;;;;20.35;3.50;;;;;;;;;;4992463;28;94471;-78
2022/04/07 13:18:08;;;;;;;10.40;2.30;;;;;;;;;;4995980;28;92473;-77
2022/04/07 13:20:34;;;;;;;9.07;2.85;;;;;;;;;;4990259;28;94657;-78
2022/04/07 13:23:01;;;;;;;13.98;3.10;;;;;;;;;;4993472;28;91705;-77
2022/04/07 13:25:27;;;;;;;9.15;3.17;;;;;;;;;;4991220;28;93350;-77
2022/04/07 13:27:54;;;;;;;14.77;3.78;;;;;;;;;;4985780;28;93535;-76
2022/04/07 13:30:23;;;;;;;11.68;3.25;;;;;;;;;;4971251;28;94874;-78
2022/04/07 13:32:50;;;;;;;12.10;2.70;;;;;;;;;;4972535;28;95197;-77
2022/04/07 13:35:16;;;;;;;12.52;3.33;;;;;;;;;;4975408;28;93084;-78
2022/04/07 13:37:43;;;;;;;11.60;3.10;;;;;;;;;;4972597;28;92489;-78
2022/04/07 13:40:09;;;;;;;10.10;3.20;;;;;;;;;;4975349;28;93978;-78
2022/04/07 13:42:48;;;;;;;13.32;3.50;;;;;;;;;;4973131;28;92485;-78
2022/04/07 13:45:14;;;;;;;12.10;2.88;;;;;;;;;;4984952;28;92957;-78
2022/04/07 13:47:41;;;;;;;5.75;2.30;;;;;;;;;;4972537;28;93378;-77
2022/04/07 13:50:07;;;;;;;13.63;2.78;;;;;;;;;;4982700;28;92500;-78
2022/04/07 13:52:34;;;;;;;13.85;3.20;;;;;;;;;;4985953;28;94058;-78
2022/04/07 13:55:00;;;;;;;9.70;3.25;;;;;;;;;;4990184;28;96900;-78
2022/04/07 13:57:26;;;;;;;15.73;2.85;;;;;;;;;;4992282;28;92585;-78
2022/04/07 13:59:53;;;;;;;14.48;2.78;;;;;;;;;;4992471;28;92520;-78
2022/04/07 14:02:20;;;;;;;16.02;3.25;;;;;;;;;;5005306;28;94503;-77
2022/04/07 14:04:49;;;;;;;10.18;2.67;;;;;;;;;;5011685;28;92543;-78
2022/04/07 14:07:15;;;;;;;4.60;1.95;;;;;;;;;;5012008;28;94126;-78
2022/04/07 14:09:42;;;;;;;10.57;3.00;;;;;;;;;;5011377;28;92513;-77
2022/04/07 14:12:08;;;;;;;5.82;1.90;;;;;;;;;;5012688;28;93985;-77
2022/04/07 14:14:34;;;;;;;8.38;2.30;;;;;;;;;;5011711;28;94318;-77
2022/04/07 14:17:01;;;;;;;15.25;2.50;;;;;;;;;;5013898;28;92486;-77
2022/04/07 14:19:27;;;;;;;9.75;2.25;;;;;;;;;;5014233;28;95265;-76
2022/04/07 14:21:54;;;;;;;11.55;3.00;;;;;;;;;;5012870;28;94523;-77
2022/04/07 14:24:20;;;;;;;13.05;3.17;;;;;;;;;;4980571;28;92797;-76
2022/04/07 14:26:46;;;;;;;11.68;2.67;;;;;;;;;;4975322;28;94710;-75
2022/04/07 14:29:13;;;;;;;4.65;1.75;;;;;;;;;;4975053;28;92409;-76
2022/04/07 14:31:39;;;;;;;13.75;2.67;;;;;;;;;;4991716;28;93607;-76
2022/04/07 14:34:06;;;;;;;10.70;2.47;;;;;;;;;;4994397;28;93514;-75
2022/04/07 14:36:34;;;;;;;6.32;1.75;;;;;;;;;;4975360;28;92164;-76
2022/04/07 14:39:00;;;;;;;7.38;1.90;;;;;;;;;;4986547;28;93737;-77